KMVN

Mount Vernon Airport

Mount Vernon, Illinois, USA
METAR KMVN 152256Z AUTO 25003KT 9SM OVC015 M01/M03 A3007 RMK AO2 SLP188 T10061028 FZRANO
Observed Flight Rules
Nov-15 @ 22:56 UTC (17 minutes ago) Marginal Visual Flight Rules
Wind Visibility Clouds
250° at 3 knots 9 miles
  • Overcast at 1,500' AGL
Temperatures Readings
Current -1°C / 30°F
Dewpoint -3°C / 27°F
Humidity 86%
Altimeter 30.07" Hg
Pressure 1018.8 hPa
Elevation 146
METAR KMVN 152256Z AUTO 25003KT 9SM OVC015 M01/M03 A3007 RMK AO2 SLP188 T10061028 FZRANO
Observed Flight Rules
Nov-15 @ 22:56 UTC
(17 minutes ago)
MVFR
Wind Visibility
250° at 3 knots 9 miles
Clouds
  • Overcast at 1,500' AGL
Temperature Dewpoint
-1°C / 30°F -3°C / 27°F
Humidity Altimeter Pressure
86% 30.07" Hg 1018.8 hPa